Blk Riv Falls, Wisconsin
Current Conditions -  °F | °C
As of 11:55 AM on Monday 24 Nov 2014 (Local Time) from KBCK Reporting Station
Moderate Snow Moderate Snow  
Wind Chill: 19°   Ceiling: 600
Heat Index: 29°   Visibility: 0.5mi
Dew Point: 29°   Wind: 14mph
Humidity: 100%   Direction: 280°W
Pressure: 29.29"   Gusts: 20mph
Location:  44.2819°N, 90.7695°W
Report Text: KBCK 241755Z AUTO 28012G17KT 1/2SM SN OVC006 M01/M01 A2929 RMK AO2 T10151015 10020 21015
Loading
Personal Weather Stations






























Interactive Weather Map New forecast layout! Learn more

10-Day Weather Forecast

Advertisements
Track Severe Weather on mobile